Hauptseite
METAR-TAF:

METAR-TAF

Flughäfen :

Verkehrslandeplatz Hof-Plauen

Hof, Deutschland

Breite: 50-19N, Länge: 011-53E, Höhe: 567 m

Beobachtung

Neuester Wetterbericht von vor 7 Stunden und 42 Minuten, um 17:50 UTC
Wind 7 kt aus West/Südwest
Temperatur 5°C
Luftfeuchtigkeit 81%
Luftdruck 1016 hPa
Sichtweite 10 km oder mehr
Aufgelockert bewölkt in der Höhe von 4100 ft

METAR: EDQM 071750Z 25007KT 9999 SCT041 05/02 Q1016

Zeit: 03:32 (01:32 UTC)

Prognose

Neuester Wetterbericht von vor 8 Stunden und 32 Minuten, um 17:00 UTC
Gültige Prognose vom 07 um 18 UTC bis 08 um 03 UTC
Wind 9 kt aus West
Sichtweite 10 km oder mehr
keine Wolken unter 1500 m und keine Kumulonimbus oder Gewitterwolken
Übergehend zu
vom 07 um 18 UTC bis 07 um 20 UTC
Wind 4 kt aus West/Südwest
Zeitweise
vom 07 um 23 UTC bis 08 um 03 UTC
Sichtweite: 0700 m
Nebel

TAF: EDQM 071700Z 0718/0803 28009KT CAVOK BECMG 0718/0720 24004KT TEMPO 0723/0803 0700 FG

Wetterbeobachtungen und Prognosen von mehr als 4000 Flughäfen (METAR und TAF Bericht).

Die verfügbaren Stationen werden durch gelbe und rote Markierungen auf der Karte dargestellt.

Führen Sie die Maus auf sie, um den Namen der Station zu sehen.

Darauf klicken, um die Beobachtung von Wetterbeobachtungen und Prognosen zu sehen.

Um die Karte zu ändern : klicken Sie auf den grünen Tasten mit einem schwarzen Kreuz Zum Vergrößern, auf den grünen Button mit einem Gedankenstrich zu verkleinern, oder auf die grünen Pfeile für benachbarte Karten.


METAR-TAF: